sensor_id;sensor_type;location;lat;lon;timestamp;temperature;humidity
7016;DHT22;3548;48.402;9.990;2023-06-22T00:01:53;20.00;99.90
7016;DHT22;3548;48.402;9.990;2023-06-22T00:04:19;19.90;99.90
7016;DHT22;3548;48.402;9.990;2023-06-22T00:06:45;19.90;99.90
7016;DHT22;3548;48.402;9.990;2023-06-22T00:09:10;19.90;99.90
7016;DHT22;3548;48.402;9.990;2023-06-22T00:11:36;19.90;99.90
7016;DHT22;3548;48.402;9.990;2023-06-22T00:14:03;19.90;99.90
7016;DHT22;3548;48.402;9.990;2023-06-22T00:16:28;19.90;99.90
7016;DHT22;3548;48.402;9.990;2023-06-22T00:18:54;19.90;99.90
7016;DHT22;3548;48.402;9.990;2023-06-22T00:21:20;19.90;99.90
7016;DHT22;3548;48.402;9.990;2023-06-22T00:23:46;19.80;99.90
7016;DHT22;3548;48.402;9.990;2023-06-22T00:26:13;19.80;99.90
7016;DHT22;3548;48.402;9.990;2023-06-22T00:28:38;19.80;99.90
7016;DHT22;3548;48.402;9.990;2023-06-22T00:31:04;19.80;99.90
7016;DHT22;3548;48.402;9.990;2023-06-22T00:33:30;19.70;99.90
7016;DHT22;3548;48.402;9.990;2023-06-22T00:35:55;19.70;99.90
7016;DHT22;3548;48.402;9.990;2023-06-22T00:38:21;19.70;99.90
7016;DHT22;3548;48.402;9.990;2023-06-22T00:40:46;19.60;99.90
7016;DHT22;3548;48.402;9.990;2023-06-22T00:43:12;19.60;99.90
7016;DHT22;3548;48.402;9.990;2023-06-22T00:45:38;19.60;99.90
7016;DHT22;3548;48.402;9.990;2023-06-22T00:48:05;19.50;99.90
7016;DHT22;3548;48.402;9.990;2023-06-22T00:50:32;19.50;99.90
7016;DHT22;3548;48.402;9.990;2023-06-22T00:53:00;19.50;99.90
7016;DHT22;3548;48.402;9.990;2023-06-22T00:55:28;19.40;99.90
7016;DHT22;3548;48.402;9.990;2023-06-22T00:57:53;19.40;99.90
7016;DHT22;3548;48.402;9.990;2023-06-22T01:00:25;19.30;99.90
7016;DHT22;3548;48.402;9.990;2023-06-22T01:02:52;19.30;99.90
7016;DHT22;3548;48.402;9.990;2023-06-22T01:05:21;19.30;99.90
7016;DHT22;3548;48.402;9.990;2023-06-22T01:08:12;19.30;99.90
7016;DHT22;3548;48.402;9.990;2023-06-22T01:11:03;19.20;99.90
7016;DHT22;3548;48.402;9.990;2023-06-22T01:13:43;19.20;99.90
7016;DHT22;3548;48.402;9.990;2023-06-22T01:16:26;19.20;99.90
7016;DHT22;3548;48.402;9.990;2023-06-22T01:18:55;19.20;99.90
7016;DHT22;3548;48.402;9.990;2023-06-22T01:21:22;19.20;99.90
7016;DHT22;3548;48.402;9.990;2023-06-22T01:23:55;19.20;99.90
7016;DHT22;3548;48.402;9.990;2023-06-22T01:27:05;19.10;99.90
7016;DHT22;3548;48.402;9.990;2023-06-22T01:29:35;19.10;99.90
7016;DHT22;3548;48.402;9.990;2023-06-22T01:32:03;19.10;99.90
7016;DHT22;3548;48.402;9.990;2023-06-22T01:34:30;19.10;99.90
7016;DHT22;3548;48.402;9.990;2023-06-22T01:36:57;19.10;99.90
7016;DHT22;3548;48.402;9.990;2023-06-22T01:39:24;19.10;99.90
7016;DHT22;3548;48.402;9.990;2023-06-22T01:41:50;19.10;99.90
7016;DHT22;3548;48.402;9.990;2023-06-22T01:44:16;19.00;99.90
7016;DHT22;3548;48.402;9.990;2023-06-22T01:46:43;19.00;99.90
7016;DHT22;3548;48.402;9.990;2023-06-22T01:49:09;19.00;99.90
7016;DHT22;3548;48.402;9.990;2023-06-22T01:51:34;19.00;99.90
7016;DHT22;3548;48.402;9.990;2023-06-22T01:54:01;19.00;99.90
7016;DHT22;3548;48.402;9.990;2023-06-22T01:56:27;19.00;99.90
7016;DHT22;3548;48.402;9.990;2023-06-22T02:01:31;18.90;99.90
7016;DHT22;3548;48.402;9.990;2023-06-22T02:07:00;18.90;99.90
7016;DHT22;3548;48.402;9.990;2023-06-22T02:09:30;18.90;99.90
7016;DHT22;3548;48.402;9.990;2023-06-22T02:11:57;18.90;99.90
7016;DHT22;3548;48.402;9.990;2023-06-22T02:14:24;18.90;99.90
7016;DHT22;3548;48.402;9.990;2023-06-22T02:16:51;18.90;99.90
7016;DHT22;3548;48.402;9.990;2023-06-22T02:19:17;18.80;99.90
7016;DHT22;3548;48.402;9.990;2023-06-22T02:21:47;18.80;99.90
7016;DHT22;3548;48.402;9.990;2023-06-22T02:24:13;18.80;99.90
7016;DHT22;3548;48.402;9.990;2023-06-22T02:26:38;18.80;99.90
7016;DHT22;3548;48.402;9.990;2023-06-22T02:29:07;18.80;99.90
7016;DHT22;3548;48.402;9.990;2023-06-22T02:31:33;18.80;99.90
7016;DHT22;3548;48.402;9.990;2023-06-22T02:33:59;18.90;99.90
7016;DHT22;3548;48.402;9.990;2023-06-22T02:36:25;18.90;99.90
7016;DHT22;3548;48.402;9.990;2023-06-22T02:38:53;18.90;99.90
7016;DHT22;3548;48.402;9.990;2023-06-22T02:41:19;18.90;99.90
7016;DHT22;3548;48.402;9.990;2023-06-22T02:43:45;19.00;99.90
7016;DHT22;3548;48.402;9.990;2023-06-22T02:46:12;19.00;99.90
7016;DHT22;3548;48.402;9.990;2023-06-22T02:48:41;19.00;99.90
7016;DHT22;3548;48.402;9.990;2023-06-22T02:51:07;19.00;99.90
7016;DHT22;3548;48.402;9.990;2023-06-22T02:53:33;19.00;99.90
7016;DHT22;3548;48.402;9.990;2023-06-22T02:56:00;18.90;99.90
7016;DHT22;3548;48.402;9.990;2023-06-22T02:58:26;18.90;99.90
7016;DHT22;3548;48.402;9.990;2023-06-22T03:00:52;18.90;99.90
7016;DHT22;3548;48.402;9.990;2023-06-22T03:03:19;18.90;99.90
7016;DHT22;3548;48.402;9.990;2023-06-22T03:05:45;18.90;99.90
7016;DHT22;3548;48.402;9.990;2023-06-22T03:08:10;18.90;99.90
7016;DHT22;3548;48.402;9.990;2023-06-22T03:10:36;18.90;99.90
7016;DHT22;3548;48.402;9.990;2023-06-22T03:13:01;18.90;99.90
7016;DHT22;3548;48.402;9.990;2023-06-22T03:15:27;18.90;99.90
7016;DHT22;3548;48.402;9.990;2023-06-22T03:17:54;18.90;99.90
7016;DHT22;3548;48.402;9.990;2023-06-22T03:20:20;18.90;99.90
7016;DHT22;3548;48.402;9.990;2023-06-22T03:22:46;18.90;99.90
7016;DHT22;3548;48.402;9.990;2023-06-22T03:25:11;18.90;99.90
7016;DHT22;3548;48.402;9.990;2023-06-22T03:27:39;18.90;99.90
7016;DHT22;3548;48.402;9.990;2023-06-22T03:30:06;19.00;99.90
7016;DHT22;3548;48.402;9.990;2023-06-22T03:32:32;19.00;99.90
7016;DHT22;3548;48.402;9.990;2023-06-22T03:34:58;19.00;99.90
7016;DHT22;3548;48.402;9.990;2023-06-22T03:37:25;19.00;99.90
7016;DHT22;3548;48.402;9.990;2023-06-22T03:39:51;19.00;99.90
7016;DHT22;3548;48.402;9.990;2023-06-22T03:42:16;19.00;99.90
7016;DHT22;3548;48.402;9.990;2023-06-22T03:44:42;19.00;99.90
7016;DHT22;3548;48.402;9.990;2023-06-22T03:47:07;19.00;99.90
7016;DHT22;3548;48.402;9.990;2023-06-22T03:49:34;19.00;99.90
7016;DHT22;3548;48.402;9.990;2023-06-22T03:52:00;19.00;99.90
7016;DHT22;3548;48.402;9.990;2023-06-22T03:54:28;19.00;99.90
7016;DHT22;3548;48.402;9.990;2023-06-22T03:56:53;19.00;99.90
7016;DHT22;3548;48.402;9.990;2023-06-22T03:59:19;19.10;99.90
7016;DHT22;3548;48.402;9.990;2023-06-22T04:01:45;19.10;99.90
7016;DHT22;3548;48.402;9.990;2023-06-22T04:04:11;19.10;99.90
7016;DHT22;3548;48.402;9.990;2023-06-22T04:06:38;19.10;99.90
7016;DHT22;3548;48.402;9.990;2023-06-22T04:09:05;19.10;99.90
7016;DHT22;3548;48.402;9.990;2023-06-22T04:11:30;19.20;99.90
7016;DHT22;3548;48.402;9.990;2023-06-22T04:13:56;19.20;99.90
7016;DHT22;3548;48.402;9.990;2023-06-22T04:16:22;19.20;99.90
7016;DHT22;3548;48.402;9.990;2023-06-22T04:18:47;19.30;99.90
7016;DHT22;3548;48.402;9.990;2023-06-22T04:21:13;19.40;99.90
7016;DHT22;3548;48.402;9.990;2023-06-22T04:23:39;19.60;99.90
7016;DHT22;3548;48.402;9.990;2023-06-22T04:26:05;19.70;99.90
7016;DHT22;3548;48.402;9.990;2023-06-22T04:28:30;19.80;99.90
7016;DHT22;3548;48.402;9.990;2023-06-22T04:31:03;19.90;99.90
7016;DHT22;3548;48.402;9.990;2023-06-22T04:33:28;20.00;99.90
7016;DHT22;3548;48.402;9.990;2023-06-22T04:35:57;20.10;99.90
7016;DHT22;3548;48.402;9.990;2023-06-22T04:38:24;20.30;99.90
7016;DHT22;3548;48.402;9.990;2023-06-22T04:40:50;20.50;99.90
7016;DHT22;3548;48.402;9.990;2023-06-22T04:43:16;20.90;99.90
7016;DHT22;3548;48.402;9.990;2023-06-22T04:45:41;21.40;99.90
7016;DHT22;3548;48.402;9.990;2023-06-22T04:48:07;21.90;99.90
7016;DHT22;3548;48.402;9.990;2023-06-22T04:50:36;22.20;99.90
7016;DHT22;3548;48.402;9.990;2023-06-22T04:53:02;22.60;99.90
7016;DHT22;3548;48.402;9.990;2023-06-22T04:55:31;22.90;99.90
7016;DHT22;3548;48.402;9.990;2023-06-22T04:57:56;22.80;99.90
7016;DHT22;3548;48.402;9.990;2023-06-22T05:00:29;22.90;99.90
7016;DHT22;3548;48.402;9.990;2023-06-22T05:02:55;23.00;99.90
7016;DHT22;3548;48.402;9.990;2023-06-22T05:05:23;23.20;99.90
7016;DHT22;3548;48.402;9.990;2023-06-22T05:07:50;23.20;99.90
7016;DHT22;3548;48.402;9.990;2023-06-22T05:10:19;23.10;99.90
7016;DHT22;3548;48.402;9.990;2023-06-22T05:12:45;22.90;99.90
7016;DHT22;3548;48.402;9.990;2023-06-22T05:15:11;22.70;99.90
7016;DHT22;3548;48.402;9.990;2023-06-22T05:17:37;22.30;99.90
7016;DHT22;3548;48.402;9.990;2023-06-22T05:20:09;22.00;99.90
7016;DHT22;3548;48.402;9.990;2023-06-22T05:22:35;21.80;99.90
7016;DHT22;3548;48.402;9.990;2023-06-22T05:25:00;21.70;99.90
7016;DHT22;3548;48.402;9.990;2023-06-22T05:27:26;21.60;99.90
7016;DHT22;3548;48.402;9.990;2023-06-22T05:29:51;21.60;99.90
7016;DHT22;3548;48.402;9.990;2023-06-22T05:32:17;21.60;99.90
7016;DHT22;3548;48.402;9.990;2023-06-22T05:34:44;21.60;99.90
7016;DHT22;3548;48.402;9.990;2023-06-22T05:37:09;21.60;99.90
7016;DHT22;3548;48.402;9.990;2023-06-22T05:39:35;21.60;99.90
7016;DHT22;3548;48.402;9.990;2023-06-22T05:42:04;21.70;99.90
7016;DHT22;3548;48.402;9.990;2023-06-22T05:44:30;21.80;99.90
7016;DHT22;3548;48.402;9.990;2023-06-22T05:46:55;21.90;99.90
7016;DHT22;3548;48.402;9.990;2023-06-22T05:49:21;21.90;99.90
7016;DHT22;3548;48.402;9.990;2023-06-22T05:51:47;21.80;99.90
7016;DHT22;3548;48.402;9.990;2023-06-22T05:54:13;21.70;99.90
7016;DHT22;3548;48.402;9.990;2023-06-22T05:56:41;21.60;99.90
7016;DHT22;3548;48.402;9.990;2023-06-22T05:59:06;21.60;99.90
7016;DHT22;3548;48.402;9.990;2023-06-22T06:01:32;21.60;99.90
7016;DHT22;3548;48.402;9.990;2023-06-22T06:04:00;21.60;99.90
7016;DHT22;3548;48.402;9.990;2023-06-22T06:06:25;21.60;99.90
7016;DHT22;3548;48.402;9.990;2023-06-22T06:08:54;21.70;99.90
7016;DHT22;3548;48.402;9.990;2023-06-22T06:11:19;21.80;99.90
7016;DHT22;3548;48.402;9.990;2023-06-22T06:13:45;21.80;99.90
7016;DHT22;3548;48.402;9.990;2023-06-22T06:16:10;21.80;99.90
7016;DHT22;3548;48.402;9.990;2023-06-22T06:18:36;21.80;99.90
7016;DHT22;3548;48.402;9.990;2023-06-22T06:21:02;21.80;99.90
7016;DHT22;3548;48.402;9.990;2023-06-22T06:23:28;21.90;99.90
7016;DHT22;3548;48.402;9.990;2023-06-22T06:25:54;22.00;99.90
7016;DHT22;3548;48.402;9.990;2023-06-22T06:28:19;22.10;99.90
7016;DHT22;3548;48.402;9.990;2023-06-22T06:30:45;22.20;99.90
7016;DHT22;3548;48.402;9.990;2023-06-22T06:33:12;22.30;99.90
7016;DHT22;3548;48.402;9.990;2023-06-22T06:35:38;22.40;99.90
7016;DHT22;3548;48.402;9.990;2023-06-22T06:38:04;22.50;99.90
7016;DHT22;3548;48.402;9.990;2023-06-22T06:40:29;22.60;99.90
7016;DHT22;3548;48.402;9.990;2023-06-22T06:42:55;22.70;99.90
7016;DHT22;3548;48.402;9.990;2023-06-22T06:45:22;22.80;99.90
7016;DHT22;3548;48.402;9.990;2023-06-22T06:47:49;22.90;99.90
7016;DHT22;3548;48.402;9.990;2023-06-22T06:50:15;23.00;99.90
7016;DHT22;3548;48.402;9.990;2023-06-22T06:52:41;23.10;99.90
7016;DHT22;3548;48.402;9.990;2023-06-22T06:55:07;23.20;99.90
7016;DHT22;3548;48.402;9.990;2023-06-22T06:57:34;23.20;99.90
7016;DHT22;3548;48.402;9.990;2023-06-22T07:00:00;23.30;99.90
7016;DHT22;3548;48.402;9.990;2023-06-22T07:02:26;23.40;99.90
7016;DHT22;3548;48.402;9.990;2023-06-22T07:04:54;23.50;99.90
7016;DHT22;3548;48.402;9.990;2023-06-22T07:07:24;23.60;99.90
7016;DHT22;3548;48.402;9.990;2023-06-22T07:09:49;23.70;99.90
7016;DHT22;3548;48.402;9.990;2023-06-22T07:12:15;23.80;99.90
7016;DHT22;3548;48.402;9.990;2023-06-22T07:14:40;23.90;99.90
7016;DHT22;3548;48.402;9.990;2023-06-22T07:17:06;23.80;99.90
7016;DHT22;3548;48.402;9.990;2023-06-22T07:19:33;23.90;99.90
7016;DHT22;3548;48.402;9.990;2023-06-22T07:21:59;23.90;99.90
7016;DHT22;3548;48.402;9.990;2023-06-22T07:24:24;23.90;99.90
7016;DHT22;3548;48.402;9.990;2023-06-22T07:26:50;24.10;99.90
7016;DHT22;3548;48.402;9.990;2023-06-22T07:29:22;24.20;99.90
7016;DHT22;3548;48.402;9.990;2023-06-22T07:31:49;24.30;99.90
7016;DHT22;3548;48.402;9.990;2023-06-22T07:34:16;24.40;99.90
7016;DHT22;3548;48.402;9.990;2023-06-22T07:36:42;24.50;99.90
7016;DHT22;3548;48.402;9.990;2023-06-22T07:39:08;24.60;99.90
7016;DHT22;3548;48.402;9.990;2023-06-22T07:41:33;24.80;99.90
7016;DHT22;3548;48.402;9.990;2023-06-22T07:43:59;24.80;99.90
7016;DHT22;3548;48.402;9.990;2023-06-22T07:46:24;24.90;99.90
7016;DHT22;3548;48.402;9.990;2023-06-22T07:48:50;25.00;99.90
7016;DHT22;3548;48.402;9.990;2023-06-22T07:51:15;25.00;99.90
7016;DHT22;3548;48.402;9.990;2023-06-22T07:53:42;25.10;99.90
7016;DHT22;3548;48.402;9.990;2023-06-22T07:56:10;25.20;99.90
7016;DHT22;3548;48.402;9.990;2023-06-22T07:58:36;25.30;99.90
7016;DHT22;3548;48.402;9.990;2023-06-22T08:01:01;25.30;99.90
7016;DHT22;3548;48.402;9.990;2023-06-22T08:03:28;25.30;99.90
7016;DHT22;3548;48.402;9.990;2023-06-22T08:05:53;25.30;99.90
7016;DHT22;3548;48.402;9.990;2023-06-22T08:08:19;25.30;99.90
7016;DHT22;3548;48.402;9.990;2023-06-22T08:10:44;25.50;99.90
7016;DHT22;3548;48.402;9.990;2023-06-22T08:13:10;25.60;99.90
7016;DHT22;3548;48.402;9.990;2023-06-22T08:15:35;25.70;99.90
7016;DHT22;3548;48.402;9.990;2023-06-22T08:18:01;25.70;99.90
7016;DHT22;3548;48.402;9.990;2023-06-22T08:20:27;25.80;99.90
7016;DHT22;3548;48.402;9.990;2023-06-22T08:22:54;25.90;99.90
7016;DHT22;3548;48.402;9.990;2023-06-22T08:25:20;25.90;99.90
7016;DHT22;3548;48.402;9.990;2023-06-22T08:27:47;26.00;99.90
7016;DHT22;3548;48.402;9.990;2023-06-22T08:30:14;26.00;99.90
7016;DHT22;3548;48.402;9.990;2023-06-22T08:32:39;26.10;99.90
7016;DHT22;3548;48.402;9.990;2023-06-22T08:35:05;26.30;99.90
7016;DHT22;3548;48.402;9.990;2023-06-22T08:37:33;26.30;99.90
7016;DHT22;3548;48.402;9.990;2023-06-22T08:40:03;26.50;99.90
7016;DHT22;3548;48.402;9.990;2023-06-22T08:42:36;26.60;99.90
7016;DHT22;3548;48.402;9.990;2023-06-22T08:45:02;26.60;99.90
7016;DHT22;3548;48.402;9.990;2023-06-22T08:47:28;26.70;99.90
7016;DHT22;3548;48.402;9.990;2023-06-22T08:49:54;26.80;99.90
7016;DHT22;3548;48.402;9.990;2023-06-22T08:52:20;26.90;99.90
7016;DHT22;3548;48.402;9.990;2023-06-22T08:54:46;27.00;99.90
7016;DHT22;3548;48.402;9.990;2023-06-22T08:57:12;26.80;99.90
7016;DHT22;3548;48.402;9.990;2023-06-22T08:59:37;26.80;99.90
7016;DHT22;3548;48.402;9.990;2023-06-22T09:02:03;26.80;99.90
7016;DHT22;3548;48.402;9.990;2023-06-22T09:04:29;26.90;99.90
7016;DHT22;3548;48.402;9.990;2023-06-22T09:06:54;26.80;99.90
7016;DHT22;3548;48.402;9.990;2023-06-22T09:09:21;26.90;99.90
7016;DHT22;3548;48.402;9.990;2023-06-22T09:11:47;27.10;99.90
7016;DHT22;3548;48.402;9.990;2023-06-22T09:14:12;27.30;99.90
7016;DHT22;3548;48.402;9.990;2023-06-22T09:16:38;27.40;99.90
7016;DHT22;3548;48.402;9.990;2023-06-22T09:19:04;27.50;99.90
7016;DHT22;3548;48.402;9.990;2023-06-22T09:21:29;27.70;99.90
7016;DHT22;3548;48.402;9.990;2023-06-22T09:23:55;27.80;99.90
7016;DHT22;3548;48.402;9.990;2023-06-22T09:26:21;27.90;99.90
7016;DHT22;3548;48.402;9.990;2023-06-22T09:28:47;28.00;99.90
7016;DHT22;3548;48.402;9.990;2023-06-22T09:31:13;28.10;99.90
7016;DHT22;3548;48.402;9.990;2023-06-22T09:33:40;28.10;99.90
7016;DHT22;3548;48.402;9.990;2023-06-22T09:36:06;28.20;99.90
7016;DHT22;3548;48.402;9.990;2023-06-22T09:38:38;28.30;99.90
7016;DHT22;3548;48.402;9.990;2023-06-22T09:41:04;28.50;99.90
7016;DHT22;3548;48.402;9.990;2023-06-22T09:43:31;28.60;99.90
7016;DHT22;3548;48.402;9.990;2023-06-22T09:45:57;28.60;99.50
7016;DHT22;3548;48.402;9.990;2023-06-22T09:48:23;28.50;99.80
7016;DHT22;3548;48.402;9.990;2023-06-22T09:50:48;28.50;99.90
7016;DHT22;3548;48.402;9.990;2023-06-22T09:53:14;28.50;99.80
7016;DHT22;3548;48.402;9.990;2023-06-22T09:55:39;28.70;99.30
7016;DHT22;3548;48.402;9.990;2023-06-22T09:58:05;28.80;99.20
7016;DHT22;3548;48.402;9.990;2023-06-22T10:00:30;28.90;99.20
7016;DHT22;3548;48.402;9.990;2023-06-22T10:02:56;29.00;99.10
7016;DHT22;3548;48.402;9.990;2023-06-22T10:05:22;29.20;98.80
7016;DHT22;3548;48.402;9.990;2023-06-22T10:07:48;29.40;98.70
7016;DHT22;3548;48.402;9.990;2023-06-22T10:10:14;29.60;98.40
7016;DHT22;3548;48.402;9.990;2023-06-22T10:12:54;29.80;97.80
7016;DHT22;3548;48.402;9.990;2023-06-22T10:15:20;29.90;97.50
7016;DHT22;3548;48.402;9.990;2023-06-22T10:17:46;30.10;97.20
7016;DHT22;3548;48.402;9.990;2023-06-22T10:20:12;30.20;96.70
7016;DHT22;3548;48.402;9.990;2023-06-22T10:22:40;30.20;96.50
7016;DHT22;3548;48.402;9.990;2023-06-22T10:25:06;30.20;96.20
7016;DHT22;3548;48.402;9.990;2023-06-22T10:27:32;30.30;96.20
7016;DHT22;3548;48.402;9.990;2023-06-22T10:29:57;30.40;96.30
7016;DHT22;3548;48.402;9.990;2023-06-22T10:32:23;30.50;96.20
7016;DHT22;3548;48.402;9.990;2023-06-22T10:34:48;30.70;96.20
7016;DHT22;3548;48.402;9.990;2023-06-22T10:37:14;30.80;95.80
7016;DHT22;3548;48.402;9.990;2023-06-22T10:39:39;30.90;95.30
7016;DHT22;3548;48.402;9.990;2023-06-22T10:42:05;30.90;95.10
7016;DHT22;3548;48.402;9.990;2023-06-22T10:44:31;31.00;94.90
7016;DHT22;3548;48.402;9.990;2023-06-22T10:46:56;31.20;94.50
7016;DHT22;3548;48.402;9.990;2023-06-22T10:49:22;31.30;93.70
7016;DHT22;3548;48.402;9.990;2023-06-22T10:51:47;31.40;93.20
7016;DHT22;3548;48.402;9.990;2023-06-22T10:54:13;31.30;92.90
7016;DHT22;3548;48.402;9.990;2023-06-22T10:56:40;31.30;93.00
7016;DHT22;3548;48.402;9.990;2023-06-22T10:59:05;31.30;92.90
7016;DHT22;3548;48.402;9.990;2023-06-22T11:01:31;31.20;92.30
7016;DHT22;3548;48.402;9.990;2023-06-22T11:03:57;31.30;92.30
7016;DHT22;3548;48.402;9.990;2023-06-22T11:06:22;31.10;92.50
7016;DHT22;3548;48.402;9.990;2023-06-22T11:08:48;31.00;92.70
7016;DHT22;3548;48.402;9.990;2023-06-22T11:11:14;30.90;92.80
7016;DHT22;3548;48.402;9.990;2023-06-22T11:13:40;30.80;92.80
7016;DHT22;3548;48.402;9.990;2023-06-22T11:16:06;30.90;92.40
7016;DHT22;3548;48.402;9.990;2023-06-22T11:18:31;31.00;91.80
7016;DHT22;3548;48.402;9.990;2023-06-22T11:20:59;31.00;92.10
7016;DHT22;3548;48.402;9.990;2023-06-22T11:23:24;31.10;92.00
7016;DHT22;3548;48.402;9.990;2023-06-22T11:25:51;31.30;92.10
7016;DHT22;3548;48.402;9.990;2023-06-22T11:28:17;31.60;90.60
7016;DHT22;3548;48.402;9.990;2023-06-22T11:30:42;31.70;90.30
7016;DHT22;3548;48.402;9.990;2023-06-22T11:33:08;31.80;90.30
7016;DHT22;3548;48.402;9.990;2023-06-22T11:35:33;31.90;90.20
7016;DHT22;3548;48.402;9.990;2023-06-22T11:37:59;31.90;88.30
7016;DHT22;3548;48.402;9.990;2023-06-22T11:40:24;32.00;88.30
7016;DHT22;3548;48.402;9.990;2023-06-22T11:42:50;32.00;88.40
7016;DHT22;3548;48.402;9.990;2023-06-22T11:45:16;32.00;87.40
7016;DHT22;3548;48.402;9.990;2023-06-22T11:47:42;32.00;87.40
7016;DHT22;3548;48.402;9.990;2023-06-22T11:50:08;32.10;86.90
7016;DHT22;3548;48.402;9.990;2023-06-22T11:52:34;32.20;87.40
7016;DHT22;3548;48.402;9.990;2023-06-22T11:55:01;32.20;86.90
7016;DHT22;3548;48.402;9.990;2023-06-22T11:57:29;32.20;87.00
7016;DHT22;3548;48.402;9.990;2023-06-22T11:59:54;32.30;87.20
7016;DHT22;3548;48.402;9.990;2023-06-22T12:02:20;32.20;87.30
7016;DHT22;3548;48.402;9.990;2023-06-22T12:04:45;32.20;87.00
7016;DHT22;3548;48.402;9.990;2023-06-22T12:07:11;32.20;87.90
7016;DHT22;3548;48.402;9.990;2023-06-22T12:09:37;32.40;88.50
7016;DHT22;3548;48.402;9.990;2023-06-22T12:12:03;32.50;89.20
7016;DHT22;3548;48.402;9.990;2023-06-22T12:14:29;32.70;89.10
7016;DHT22;3548;48.402;9.990;2023-06-22T12:16:54;33.10;88.60
7016;DHT22;3548;48.402;9.990;2023-06-22T12:19:20;33.40;86.80
7016;DHT22;3548;48.402;9.990;2023-06-22T12:21:45;33.40;86.50
7016;DHT22;3548;48.402;9.990;2023-06-22T12:24:11;33.30;87.00
7016;DHT22;3548;48.402;9.990;2023-06-22T12:26:37;33.30;87.20
7016;DHT22;3548;48.402;9.990;2023-06-22T12:29:02;33.20;86.50
7016;DHT22;3548;48.402;9.990;2023-06-22T12:31:28;33.10;86.80
7016;DHT22;3548;48.402;9.990;2023-06-22T12:33:53;33.10;86.90
7016;DHT22;3548;48.402;9.990;2023-06-22T12:36:19;33.10;86.90
7016;DHT22;3548;48.402;9.990;2023-06-22T12:38:44;33.10;86.70
7016;DHT22;3548;48.402;9.990;2023-06-22T12:41:10;33.30;86.60
7016;DHT22;3548;48.402;9.990;2023-06-22T12:43:35;33.40;85.30
7016;DHT22;3548;48.402;9.990;2023-06-22T12:46:01;33.40;85.20
7016;DHT22;3548;48.402;9.990;2023-06-22T12:48:27;33.40;85.10
7016;DHT22;3548;48.402;9.990;2023-06-22T12:50:53;33.30;84.70
7016;DHT22;3548;48.402;9.990;2023-06-22T12:53:18;33.10;84.70
7016;DHT22;3548;48.402;9.990;2023-06-22T12:55:44;33.10;84.60
7016;DHT22;3548;48.402;9.990;2023-06-22T12:58:09;33.00;84.50
7016;DHT22;3548;48.402;9.990;2023-06-22T13:00:35;32.80;84.70
7016;DHT22;3548;48.402;9.990;2023-06-22T13:03:00;32.70;84.30
7016;DHT22;3548;48.402;9.990;2023-06-22T13:05:26;32.50;84.70
7016;DHT22;3548;48.402;9.990;2023-06-22T13:07:52;32.40;84.20
7016;DHT22;3548;48.402;9.990;2023-06-22T13:10:17;32.40;83.50
7016;DHT22;3548;48.402;9.990;2023-06-22T13:12:43;32.30;84.30
7016;DHT22;3548;48.402;9.990;2023-06-22T13:15:08;32.30;84.50
7016;DHT22;3548;48.402;9.990;2023-06-22T13:17:34;32.30;83.10
7016;DHT22;3548;48.402;9.990;2023-06-22T13:20:00;32.40;82.90
7016;DHT22;3548;48.402;9.990;2023-06-22T13:22:32;32.50;83.40
7016;DHT22;3548;48.402;9.990;2023-06-22T13:24:58;32.60;83.00
7016;DHT22;3548;48.402;9.990;2023-06-22T13:27:24;32.80;82.60
7016;DHT22;3548;48.402;9.990;2023-06-22T13:29:50;33.10;82.90
7016;DHT22;3548;48.402;9.990;2023-06-22T13:32:16;33.10;82.30
7016;DHT22;3548;48.402;9.990;2023-06-22T13:34:42;33.00;82.40
7016;DHT22;3548;48.402;9.990;2023-06-22T13:37:08;32.80;82.80
7016;DHT22;3548;48.402;9.990;2023-06-22T13:39:33;32.70;83.40
7016;DHT22;3548;48.402;9.990;2023-06-22T13:41:59;32.60;83.90
7016;DHT22;3548;48.402;9.990;2023-06-22T13:44:24;32.50;84.30
7016;DHT22;3548;48.402;9.990;2023-06-22T13:46:56;32.40;84.50
7016;DHT22;3548;48.402;9.990;2023-06-22T13:49:22;32.40;85.00
7016;DHT22;3548;48.402;9.990;2023-06-22T13:51:48;32.40;85.10
7016;DHT22;3548;48.402;9.990;2023-06-22T13:54:14;32.30;85.00
7016;DHT22;3548;48.402;9.990;2023-06-22T13:56:40;32.20;85.10
7016;DHT22;3548;48.402;9.990;2023-06-22T13:59:05;32.10;85.90
7016;DHT22;3548;48.402;9.990;2023-06-22T14:01:34;32.00;86.30
7016;DHT22;3548;48.402;9.990;2023-06-22T14:04:00;32.00;86.40
7016;DHT22;3548;48.402;9.990;2023-06-22T14:06:27;32.00;86.40
7016;DHT22;3548;48.402;9.990;2023-06-22T14:08:53;32.00;86.80
7016;DHT22;3548;48.402;9.990;2023-06-22T14:11:18;32.00;87.00
7016;DHT22;3548;48.402;9.990;2023-06-22T14:13:44;32.10;87.60
7016;DHT22;3548;48.402;9.990;2023-06-22T14:16:10;32.30;88.20
7016;DHT22;3548;48.402;9.990;2023-06-22T14:18:35;32.40;87.40
7016;DHT22;3548;48.402;9.990;2023-06-22T14:21:01;32.20;86.50
7016;DHT22;3548;48.402;9.990;2023-06-22T14:23:27;32.40;86.80
7016;DHT22;3548;48.402;9.990;2023-06-22T14:25:52;32.50;87.30
7016;DHT22;3548;48.402;9.990;2023-06-22T14:28:18;32.70;87.70
7016;DHT22;3548;48.402;9.990;2023-06-22T14:30:44;33.00;87.60
7016;DHT22;3548;48.402;9.990;2023-06-22T14:33:09;33.20;87.10
7016;DHT22;3548;48.402;9.990;2023-06-22T14:35:35;33.40;86.60
7016;DHT22;3548;48.402;9.990;2023-06-22T14:38:01;33.60;86.10
7016;DHT22;3548;48.402;9.990;2023-06-22T14:40:26;33.90;85.40
7016;DHT22;3548;48.402;9.990;2023-06-22T14:42:52;34.00;84.30
7016;DHT22;3548;48.402;9.990;2023-06-22T14:45:17;34.10;84.30
7016;DHT22;3548;48.402;9.990;2023-06-22T14:47:43;34.10;84.40
7016;DHT22;3548;48.402;9.990;2023-06-22T14:50:08;34.10;84.50
7016;DHT22;3548;48.402;9.990;2023-06-22T14:52:34;34.10;84.00
7016;DHT22;3548;48.402;9.990;2023-06-22T14:54:59;34.20;83.40
7016;DHT22;3548;48.402;9.990;2023-06-22T14:57:25;34.20;82.90
7016;DHT22;3548;48.402;9.990;2023-06-22T14:59:50;34.00;83.00
7016;DHT22;3548;48.402;9.990;2023-06-22T15:02:16;33.80;83.20
7016;DHT22;3548;48.402;9.990;2023-06-22T15:04:42;33.60;83.50
7016;DHT22;3548;48.402;9.990;2023-06-22T15:07:08;33.40;83.50
7016;DHT22;3548;48.402;9.990;2023-06-22T15:09:33;33.30;83.50
7016;DHT22;3548;48.402;9.990;2023-06-22T15:11:59;33.10;84.10
7016;DHT22;3548;48.402;9.990;2023-06-22T15:14:27;33.00;84.90
7016;DHT22;3548;48.402;9.990;2023-06-22T15:16:53;32.90;84.80
7016;DHT22;3548;48.402;9.990;2023-06-22T15:19:18;32.90;85.10
7016;DHT22;3548;48.402;9.990;2023-06-22T15:21:44;32.80;85.40
7016;DHT22;3548;48.402;9.990;2023-06-22T15:24:09;32.80;85.60
7016;DHT22;3548;48.402;9.990;2023-06-22T15:26:35;32.80;86.00
7016;DHT22;3548;48.402;9.990;2023-06-22T15:29:00;32.80;86.10
7016;DHT22;3548;48.402;9.990;2023-06-22T15:31:27;32.70;86.10
7016;DHT22;3548;48.402;9.990;2023-06-22T15:33:52;32.50;86.50
7016;DHT22;3548;48.402;9.990;2023-06-22T15:36:18;32.40;88.00
7016;DHT22;3548;48.402;9.990;2023-06-22T15:38:44;32.40;88.30
7016;DHT22;3548;48.402;9.990;2023-06-22T15:41:09;32.40;88.30
7016;DHT22;3548;48.402;9.990;2023-06-22T15:43:35;32.50;88.30
7016;DHT22;3548;48.402;9.990;2023-06-22T15:46:00;32.50;87.80
7016;DHT22;3548;48.402;9.990;2023-06-22T15:48:26;32.50;87.70
7016;DHT22;3548;48.402;9.990;2023-06-22T15:50:52;32.40;87.90
7016;DHT22;3548;48.402;9.990;2023-06-22T15:53:17;32.40;87.90
7016;DHT22;3548;48.402;9.990;2023-06-22T15:55:43;32.40;88.00
7016;DHT22;3548;48.402;9.990;2023-06-22T15:58:08;32.20;88.40
7016;DHT22;3548;48.402;9.990;2023-06-22T16:00:35;32.00;89.00
7016;DHT22;3548;48.402;9.990;2023-06-22T16:03:00;32.00;89.90